Time;durP1;ratioP1;P1;durP2;ratioP2;P2;SDS_P1;SDS_P2;PMS_P1;PMS_P2;Temp;Humidity;BMP_temperature;BMP_pressure;BME280_temperature;BME280_humidity;BME280_pressure;Samples;Min_cycle;Max_cycle;Signal;HPM_P1;HPM_P2
2020/09/08 00:00:18;;;;;;;2.2;0.9;;;;;;;;;;;;;
2020/09/08 00:02:43;;;;;;;1.8;1;;;;;;;;;;;;;
2020/09/08 00:05:08;;;;;;;0.9;0.8;;;;;;;;;;;;;
2020/09/08 00:07:33;;;;;;;3.1;0.8;;;;;;;;;;;;;
2020/09/08 00:09:59;;;;;;;1.7;0.8;;;;;;;;;;;;;
2020/09/08 00:12:25;;;;;;;0.7;0.6;;;;;;;;;;;;;
2020/09/08 00:14:50;;;;;;;1.6;0.9;;;;;;;;;;;;;
2020/09/08 00:17:16;;;;;;;3.3;0.9;;;;;;;;;;;;;
2020/09/08 00:19:41;;;;;;;7.4;1;;;;;;;;;;;;;
2020/09/08 00:22:06;;;;;;;1.4;0.9;;;;;;;;;;;;;
2020/09/08 00:24:32;;;;;;;1.5;0.7;;;;;;;;;;;;;
2020/09/08 00:26:58;;;;;;;0.7;0.5;;;;;;;;;;;;;
2020/09/08 00:29:24;;;;;;;0.9;0.7;;;;;;;;;;;;;
2020/09/08 00:31:49;;;;;;;0.8;0.6;;;;;;;;;;;;;
2020/09/08 00:34:15;;;;;;;0.6;0.5;;;;;;;;;;;;;
2020/09/08 00:36:41;;;;;;;1.2;0.9;;;;;;;;;;;;;
2020/09/08 00:39:05;;;;;;;1;0.7;;;;;;;;;;;;;
2020/09/08 00:41:32;;;;;;;0.8;0.7;;;;;;;;;;;;;
2020/09/08 00:43:57;;;;;;;0.5;0.5;;;;;;;;;;;;;
2020/09/08 00:46:23;;;;;;;0.8;0.6;;;;;;;;;;;;;
2020/09/08 00:48:49;;;;;;;0.6;0.6;;;;;;;;;;;;;
2020/09/08 00:51:14;;;;;;;0.6;0.5;;;;;;;;;;;;;
2020/09/08 00:53:39;;;;;;;0.8;0.5;;;;;;;;;;;;;
2020/09/08 00:56:05;;;;;;;3.9;0.6;;;;;;;;;;;;;
2020/09/08 00:58:32;;;;;;;2;0.9;;;;;;;;;;;;;
2020/09/08 01:00:57;;;;;;;1.4;0.8;;;;;;;;;;;;;
2020/09/08 01:03:22;;;;;;;1.1;0.7;;;;;;;;;;;;;
2020/09/08 01:05:47;;;;;;;1;0.7;;;;;;;;;;;;;
2020/09/08 01:08:12;;;;;;;0.5;0.5;;;;;;;;;;;;;
2020/09/08 01:10:37;;;;;;;0.9;0.8;;;;;;;;;;;;;
2020/09/08 01:13:02;;;;;;;1.1;1;;;;;;;;;;;;;
2020/09/08 01:15:29;;;;;;;1.2;0.5;;;;;;;;;;;;;
2020/09/08 01:17:54;;;;;;;3.3;1;;;;;;;;;;;;;
2020/09/08 01:20:20;;;;;;;1;0.9;;;;;;;;;;;;;
2020/09/08 01:22:44;;;;;;;0.8;0.7;;;;;;;;;;;;;
2020/09/08 01:25:10;;;;;;;1.2;0.8;;;;;;;;;;;;;
2020/09/08 01:27:36;;;;;;;1.7;0.8;;;;;;;;;;;;;
2020/09/08 01:30:01;;;;;;;1.9;1;;;;;;;;;;;;;
2020/09/08 01:32:26;;;;;;;1.1;0.8;;;;;;;;;;;;;
2020/09/08 01:34:53;;;;;;;1.1;0.9;;;;;;;;;;;;;
2020/09/08 01:37:18;;;;;;;1.4;1;;;;;;;;;;;;;
2020/09/08 01:39:43;;;;;;;3.7;1.2;;;;;;;;;;;;;
2020/09/08 01:42:09;;;;;;;1;0.8;;;;;;;;;;;;;
2020/09/08 01:44:34;;;;;;;0.7;0.7;;;;;;;;;;;;;
2020/09/08 01:46:59;;;;;;;1.4;0.9;;;;;;;;;;;;;
2020/09/08 01:49:24;;;;;;;2.2;1.1;;;;;;;;;;;;;
2020/09/08 01:51:49;;;;;;;7.6;1.1;;;;;;;;;;;;;
2020/09/08 01:54:14;;;;;;;1.4;1;;;;;;;;;;;;;
2020/09/08 01:56:40;;;;;;;1.6;0.8;;;;;;;;;;;;;
2020/09/08 01:59:05;;;;;;;1;0.9;;;;;;;;;;;;;
2020/09/08 02:01:31;;;;;;;1.5;0.8;;;;;;;;;;;;;
2020/09/08 02:03:56;;;;;;;1.1;0.9;;;;;;;;;;;;;
2020/09/08 02:06:22;;;;;;;1.2;1.1;;;;;;;;;;;;;
2020/09/08 02:08:47;;;;;;;0.8;0.7;;;;;;;;;;;;;
2020/09/08 02:11:17;;;;;;;1.3;1.1;;;;;;;;;;;;;
2020/09/08 02:13:45;;;;;;;5.5;1.2;;;;;;;;;;;;;
2020/09/08 02:16:10;;;;;;;2.4;0.9;;;;;;;;;;;;;
2020/09/08 02:18:35;;;;;;;0.8;0.6;;;;;;;;;;;;;
2020/09/08 02:21:00;;;;;;;0.9;0.7;;;;;;;;;;;;;
2020/09/08 02:23:26;;;;;;;1.1;0.9;;;;;;;;;;;;;
2020/09/08 02:25:51;;;;;;;1.1;0.8;;;;;;;;;;;;;
2020/09/08 02:28:20;;;;;;;1.2;0.8;;;;;;;;;;;;;
2020/09/08 02:30:45;;;;;;;1.3;0.9;;;;;;;;;;;;;
2020/09/08 02:33:10;;;;;;;1.1;0.9;;;;;;;;;;;;;
2020/09/08 02:35:35;;;;;;;0.6;0.5;;;;;;;;;;;;;
2020/09/08 02:38:01;;;;;;;1;0.8;;;;;;;;;;;;;
2020/09/08 02:40:26;;;;;;;1.8;0.9;;;;;;;;;;;;;
2020/09/08 02:42:51;;;;;;;0.9;0.7;;;;;;;;;;;;;
2020/09/08 02:45:17;;;;;;;1.3;0.7;;;;;;;;;;;;;
2020/09/08 02:47:44;;;;;;;0.8;0.7;;;;;;;;;;;;;
2020/09/08 02:50:09;;;;;;;1.1;0.7;;;;;;;;;;;;;
2020/09/08 02:52:34;;;;;;;0.8;0.7;;;;;;;;;;;;;
2020/09/08 02:54:59;;;;;;;0.9;0.7;;;;;;;;;;;;;
2020/09/08 02:57:26;;;;;;;1.4;0.9;;;;;;;;;;;;;
2020/09/08 02:59:52;;;;;;;1.5;1;;;;;;;;;;;;;
2020/09/08 03:02:17;;;;;;;0.7;0.7;;;;;;;;;;;;;
2020/09/08 03:04:42;;;;;;;4.1;1.4;;;;;;;;;;;;;
2020/09/08 03:07:07;;;;;;;2.4;1;;;;;;;;;;;;;
2020/09/08 03:09:33;;;;;;;1.5;0.7;;;;;;;;;;;;;
2020/09/08 03:11:59;;;;;;;1.1;0.7;;;;;;;;;;;;;
2020/09/08 03:14:24;;;;;;;1.1;0.9;;;;;;;;;;;;;
2020/09/08 03:16:50;;;;;;;1.7;0.9;;;;;;;;;;;;;
2020/09/08 03:19:15;;;;;;;1.6;1;;;;;;;;;;;;;
2020/09/08 03:21:41;;;;;;;0.9;0.8;;;;;;;;;;;;;
2020/09/08 03:24:06;;;;;;;1.1;0.8;;;;;;;;;;;;;
2020/09/08 03:26:33;;;;;;;1.8;0.8;;;;;;;;;;;;;
2020/09/08 03:28:58;;;;;;;2.6;0.9;;;;;;;;;;;;;
2020/09/08 03:31:24;;;;;;;1;0.7;;;;;;;;;;;;;
2020/09/08 03:33:49;;;;;;;1.2;0.8;;;;;;;;;;;;;
2020/09/08 03:36:14;;;;;;;1.2;0.9;;;;;;;;;;;;;
2020/09/08 03:38:39;;;;;;;0.7;0.7;;;;;;;;;;;;;
2020/09/08 03:41:09;;;;;;;1.5;0.8;;;;;;;;;;;;;
2020/09/08 03:43:34;;;;;;;7.5;0.9;;;;;;;;;;;;;
2020/09/08 03:45:59;;;;;;;1.3;0.8;;;;;;;;;;;;;
2020/09/08 03:48:24;;;;;;;1.6;1;;;;;;;;;;;;;
2020/09/08 03:50:49;;;;;;;1.2;0.7;;;;;;;;;;;;;
2020/09/08 03:53:14;;;;;;;1.5;0.6;;;;;;;;;;;;;
2020/09/08 03:55:40;;;;;;;4;0.7;;;;;;;;;;;;;
2020/09/08 03:58:05;;;;;;;1;0.7;;;;;;;;;;;;;
2020/09/08 04:02:30;;;;;;;1.2;0.8;;;;;;;11.4;89.41895;947.3173;;;;
2020/09/08 04:04:58;;;;;;;1.1;0.8;;;;;;;11.33;89.84961;947.2744;;;;
2020/09/08 04:07:23;;;;;;;1.8;1;;;;;;;11.37;89.48145;947.2092;;;;
2020/09/08 04:09:50;;;;;;;1.1;0.6;;;;;;;11.38;89.01465;947.2404;;;;
2020/09/08 04:12:15;;;;;;;2.3;1;;;;;;;11.36;89.13477;947.0956;;;;
2020/09/08 04:14:43;;;;;;;2.3;1.1;;;;;;;11.36;89.18066;947.1761;;;;
2020/09/08 04:17:08;;;;;;;0.7;0.7;;;;;;;11.38;89.18652;947.2452;;;;
2020/09/08 04:19:36;;;;;;;1.2;0.8;;;;;;;11.28;88.8457;947.248;;;;
2020/09/08 04:22:01;;;;;;;1.1;1;;;;;;;11.05;90.02051;947.2784;;;;
2020/09/08 04:24:27;;;;;;;1;0.9;;;;;;;11.02;90.78027;947.3105;;;;
2020/09/08 04:26:52;;;;;;;1.7;1.2;;;;;;;11.06;90.41309;947.3426;;;;
2020/09/08 04:29:17;;;;;;;3.5;0.9;;;;;;;11.12;90.24121;947.4386;;;;
2020/09/08 04:31:42;;;;;;;1.4;0.9;;;;;;;11.27;89.56445;947.5003;;;;
2020/09/08 04:34:07;;;;;;;1.9;0.9;;;;;;;11.29;88.92773;947.4857;;;;
2020/09/08 04:36:33;;;;;;;0.9;0.8;;;;;;;11.27;88.6377;947.5483;;;;
2020/09/08 04:39:00;;;;;;;1.5;0.8;;;;;;;11.16;89.23145;947.5342;;;;
2020/09/08 04:41:29;;;;;;;1.4;0.9;;;;;;;11.03;90.01855;947.514;;;;
2020/09/08 04:43:54;;;;;;;1.8;1.1;;;;;;;11.04;90.55566;947.4839;;;;
2020/09/08 04:46:20;;;;;;;2;1;;;;;;;11.21;89.90332;947.5481;;;;
2020/09/08 04:48:46;;;;;;;8.9;1.1;;;;;;;11.36;88.73633;947.5709;;;;
2020/09/08 04:51:11;;;;;;;1.6;0.7;;;;;;;11.42;88.55273;947.6139;;;;
2020/09/08 04:53:37;;;;;;;2.2;1.1;;;;;;;11.49;88.48926;947.5764;;;;
2020/09/08 04:56:04;;;;;;;1.6;0.8;;;;;;;11.48;88.4834;947.5729;;;;
2020/09/08 04:58:29;;;;;;;1.3;0.9;;;;;;;11.52;87.24609;947.5394;;;;
2020/09/08 05:00:55;;;;;;;3;1.2;;;;;;;11.49;87;947.5612;;;;
2020/09/08 05:03:20;;;;;;;1.9;0.9;;;;;;;11.47;87.16797;947.6078;;;;
2020/09/08 05:05:45;;;;;;;1.6;1;;;;;;;11.48;87.03027;947.5042;;;;
2020/09/08 05:08:10;;;;;;;7.5;1.3;;;;;;;11.41;87.06348;947.4817;;;;
2020/09/08 05:10:39;;;;;;;0.8;0.8;;;;;;;11.35;87.23438;947.5076;;;;
2020/09/08 05:13:06;;;;;;;1.9;1.1;;;;;;;11.35;87.54297;947.5117;;;;
2020/09/08 05:15:34;;;;;;;1.8;1.2;;;;;;;11.15;88.1084;947.4967;;;;
2020/09/08 05:17:59;;;;;;;2.1;1;;;;;;;11.16;88.1123;947.5089;;;;
2020/09/08 05:20:24;;;;;;;1.5;1.1;;;;;;;11.23;88.00879;947.5106;;;;
2020/09/08 05:22:53;;;;;;;2.6;1.1;;;;;;;11.15;88.0625;947.3946;;;;
2020/09/08 05:25:18;;;;;;;1.7;0.9;;;;;;;11.18;88.50488;947.5477;;;;
2020/09/08 05:27:49;;;;;;;2;1;;;;;;;11.23;88.62695;947.5569;;;;
2020/09/08 05:30:21;;;;;;;6.7;0.8;;;;;;;11.15;88.70313;947.5708;;;;
2020/09/08 05:32:46;;;;;;;1.8;1.2;;;;;;;11.07;89.27148;947.6281;;;;
2020/09/08 05:35:11;;;;;;;3.3;1;;;;;;;11.11;89.4043;947.6791;;;;
2020/09/08 05:37:38;;;;;;;0.9;0.8;;;;;;;11.17;89.32422;947.6939;;;;
2020/09/08 05:40:03;;;;;;;1.8;0.9;;;;;;;11.3;89.2041;947.718;;;;
2020/09/08 05:42:28;;;;;;;1.2;0.9;;;;;;;11.39;89.65527;947.7302;;;;
2020/09/08 05:45:02;;;;;;;3.1;1;;;;;;;11.42;90.14453;947.74;;;;
2020/09/08 05:47:35;;;;;;;2.9;0.9;;;;;;;11.6;90.05469;947.7413;;;;
2020/09/08 05:49:59;;;;;;;0.9;0.7;;;;;;;11.73;89.95703;947.6605;;;;
2020/09/08 05:52:27;;;;;;;1.9;1;;;;;;;11.97;89.83203;947.7766;;;;
2020/09/08 05:54:52;;;;;;;0.9;0.8;;;;;;;12.03;88.74707;947.7982;;;;
2020/09/08 05:57:18;;;;;;;0.6;0.6;;;;;;;12.22;88.55664;947.7516;;;;
2020/09/08 05:59:45;;;;;;;0.8;0.6;;;;;;;12.38;87.74121;947.7953;;;;
2020/09/08 06:02:10;;;;;;;2.1;1;;;;;;;12.55;87.68262;947.7673;;;;
2020/09/08 06:04:35;;;;;;;1.3;1.1;;;;;;;12.74;86.88477;947.7924;;;;
2020/09/08 06:07:00;;;;;;;2.8;1.1;;;;;;;13.43;84.50293;947.845;;;;
2020/09/08 06:09:26;;;;;;;2.9;0.9;;;;;;;14.65;79.19727;947.8652;;;;
2020/09/08 06:11:50;;;;;;;1.3;0.8;;;;;;;15.72;74.16797;947.8994;;;;
2020/09/08 06:14:17;;;;;;;1;0.6;;;;;;;16.53;69.84766;947.8569;;;;
2020/09/08 06:16:42;;;;;;;4.4;0.6;;;;;;;17.45;66.5498;947.8652;;;;
2020/09/08 06:19:07;;;;;;;0.6;0.6;;;;;;;18.3;63.16895;947.8373;;;;
2020/09/08 06:21:36;;;;;;;2;0.7;;;;;;;18.82;60.45117;947.8168;;;;
2020/09/08 06:24:01;;;;;;;6.3;1.1;;;;;;;19.33;59.30859;947.7932;;;;
2020/09/08 06:26:26;;;;;;;0.4;0.4;;;;;;;19.43;59.47363;947.8176;;;;
2020/09/08 06:28:52;;;;;;;0.4;0.4;;;;;;;19.83;58.22266;947.7966;;;;
2020/09/08 06:31:17;;;;;;;0.9;0.4;;;;;;;20.37;55.875;947.7664;;;;
2020/09/08 06:33:42;;;;;;;0.6;0.5;;;;;;;20.86;55.5752;947.8157;;;;
2020/09/08 06:36:07;;;;;;;0.7;0.7;;;;;;;20.58;54.72168;947.7117;;;;
2020/09/08 06:38:37;;;;;;;0.7;0.5;;;;;;;19.85;56.8584;947.8756;;;;
2020/09/08 06:41:10;;;;;;;1.2;0.7;;;;;;;20.24;56.96875;947.8959;;;;
2020/09/08 06:43:35;;;;;;;0.3;0.3;;;;;;;18.74;60.1377;947.8711;;;;
2020/09/08 06:46:00;;;;;;;0.8;0.6;;;;;;;18.09;63.71973;947.8831;;;;
2020/09/08 06:48:25;;;;;;;2.3;0.8;;;;;;;18.17;64.32422;947.8908;;;;
2020/09/08 06:50:52;;;;;;;1.5;0.9;;;;;;;18.43;63.24512;947.9869;;;;
2020/09/08 06:53:17;;;;;;;1.2;0.7;;;;;;;17.98;63.50488;947.9767;;;;
2020/09/08 06:55:42;;;;;;;2.1;0.8;;;;;;;17.51;66.11914;947.9835;;;;
2020/09/08 06:58:08;;;;;;;3.2;1.1;;;;;;;17.25;66.82129;947.9931;;;;
2020/09/08 07:00:36;;;;;;;4.9;1.2;;;;;;;17.26;68.31836;948.0479;;;;
2020/09/08 07:03:01;;;;;;;0.9;0.5;;;;;;;17.45;67.22266;948.0367;;;;
2020/09/08 07:05:29;;;;;;;2.4;1.1;;;;;;;17.74;67.26758;947.9578;;;;
2020/09/08 07:07:57;;;;;;;0.4;0.3;;;;;;;17.79;66.49805;948.0994;;;;
2020/09/08 07:10:26;;;;;;;2.2;0.3;;;;;;;18.09;65.11426;948.0734;;;;
2020/09/08 07:12:52;;;;;;;1;0.5;;;;;;;18.44;62.42188;948.0667;;;;
2020/09/08 07:15:20;;;;;;;1.2;0.5;;;;;;;18.49;62.73047;948.073;;;;
2020/09/08 07:17:48;;;;;;;0.5;0.4;;;;;;;18.72;61.37891;948.044;;;;
2020/09/08 07:20:13;;;;;;;0.6;0.4;;;;;;;19.55;60.9248;948.1164;;;;
2020/09/08 07:22:38;;;;;;;0.7;0.4;;;;;;;19.51;58.87695;948.1077;;;;
2020/09/08 07:25:03;;;;;;;0.4;0.3;;;;;;;19.8;60.68945;948.0884;;;;
2020/09/08 07:27:29;;;;;;;0.9;0.6;;;;;;;21.11;56.91602;948.0924;;;;
2020/09/08 07:29:55;;;;;;;0.6;0.4;;;;;;;22.04;54.44629;948.0675;;;;
2020/09/08 07:32:22;;;;;;;0.3;0.2;;;;;;;23.18;51.11914;948.0215;;;;
2020/09/08 07:34:47;;;;;;;0.8;0.4;;;;;;;23.56;50.99805;948.043;;;;
2020/09/08 07:37:12;;;;;;;0.3;0.2;;;;;;;23.52;48.31152;948.0359;;;;
2020/09/08 07:39:39;;;;;;;0.2;0.2;;;;;;;23.69;46.78906;948.0517;;;;
2020/09/08 07:42:04;;;;;;;0.3;0.3;;;;;;;23.76;46.34863;947.9978;;;;
2020/09/08 07:44:29;;;;;;;0.7;0.4;;;;;;;23.95;46.28711;947.9881;;;;
2020/09/08 07:46:54;;;;;;;0.5;0.2;;;;;;;24.63;45.04883;947.9672;;;;
2020/09/08 07:49:22;;;;;;;0.7;0.3;;;;;;;25.35;42.51172;947.9412;;;;
2020/09/08 07:51:47;;;;;;;0.4;0.3;;;;;;;26.55;41.33496;947.8928;;;;
2020/09/08 07:54:13;;;;;;;1;0.2;;;;;;;28.12;36.90527;947.8772;;;;
2020/09/08 07:56:38;;;;;;;1.3;0.3;;;;;;;28.6;35.63574;947.8951;;;;
2020/09/08 07:59:05;;;;;;;0.4;0.3;;;;;;;27.43;38.21289;947.8886;;;;
2020/09/08 08:01:30;;;;;;;0.1;0.1;;;;;;;28.48;36.15039;947.925;;;;
2020/09/08 08:03:55;;;;;;;0.3;0.3;;;;;;;28.96;35.72363;947.9633;;;;
2020/09/08 08:06:20;;;;;;;0.2;0.1;;;;;;;28.79;37.62598;947.9492;;;;
2020/09/08 08:08:45;;;;;;;0.4;0.3;;;;;;;29.69;35.74512;947.894;;;;
2020/09/08 08:11:14;;;;;;;0.3;0.3;;;;;;;27.55;38.48438;947.878;;;;
2020/09/08 08:13:42;;;;;;;0.5;0.4;;;;;;;27.16;40.09863;947.949;;;;
2020/09/08 08:16:07;;;;;;;0.2;0.2;;;;;;;28.37;37.92383;948.0096;;;;
2020/09/08 08:18:34;;;;;;;2.9;0.5;;;;;;;28.85;37.75;948.0584;;;;
2020/09/08 08:20:59;;;;;;;1.9;0.4;;;;;;;30.9;36.47461;948.024;;;;
2020/09/08 08:23:25;;;;;;;0.8;0.4;;;;;;;30.38;36.38477;948.0491;;;;
2020/09/08 08:25:50;;;;;;;0.2;0.2;;;;;;;31.3;34.79688;948.1072;;;;
2020/09/08 08:28:19;;;;;;;0.4;0.3;;;;;;;31.54;33.20996;948.0505;;;;
2020/09/08 08:30:45;;;;;;;0.3;0.3;;;;;;;31.53;33.56836;948.1311;;;;
2020/09/08 08:33:10;;;;;;;0.2;0.2;;;;;;;31.91;33.27344;948.142;;;;
2020/09/08 08:35:35;;;;;;;0.3;0.3;;;;;;;31.56;33.75;948.1837;;;;
2020/09/08 08:38:01;;;;;;;0.1;0.1;;;;;;;30.91;35.72363;948.1223;;;;
2020/09/08 08:40:26;;;;;;;0.2;0.2;;;;;;;31.68;32.88477;948.177;;;;
2020/09/08 08:42:53;;;;;;;0.2;0.2;;;;;;;32.12;32.59375;948.1746;;;;
2020/09/08 08:45:24;;;;;;;0.5;0.4;;;;;;;31.27;33.09473;948.1981;;;;
2020/09/08 08:47:50;;;;;;;0.3;0.3;;;;;;;31.51;32.68066;948.1735;;;;
2020/09/08 08:50:15;;;;;;;0.1;0.1;;;;;;;31.47;32.42773;948.1797;;;;
2020/09/08 08:52:42;;;;;;;0.3;0.2;;;;;;;29.26;37.56934;948.2253;;;;
2020/09/08 08:55:07;;;;;;;0.5;0.3;;;;;;;29.04;37.99316;948.2204;;;;
2020/09/08 08:57:33;;;;;;;0.3;0.3;;;;;;;27.96;41.31055;948.1859;;;;
2020/09/08 08:59:58;;;;;;;0.2;0.2;;;;;;;27.17;42.3877;948.1136;;;;
2020/09/08 09:02:23;;;;;;;0.4;0.3;;;;;;;25.85;45.05273;948.2147;;;;
2020/09/08 09:04:48;;;;;;;0.7;0.3;;;;;;;26.07;45.64355;948.1655;;;;
2020/09/08 09:07:15;;;;;;;0.4;0.4;;;;;;;25.24;46.8916;948.1789;;;;
2020/09/08 09:09:40;;;;;;;0.3;0.3;;;;;;;25.13;46.26758;948.1981;;;;
2020/09/08 09:12:05;;;;;;;0.3;0.2;;;;;;;24.83;46.89746;948.1708;;;;
2020/09/08 09:14:30;;;;;;;0.2;0.2;;;;;;;24.67;48.80273;948.2104;;;;
2020/09/08 09:16:56;;;;;;;0.4;0.4;;;;;;;24.96;47.41699;948.1655;;;;
2020/09/08 09:19:20;;;;;;;0.6;0.4;;;;;;;25.09;47.64355;948.1343;;;;
2020/09/08 09:21:46;;;;;;;0.4;0.3;;;;;;;24.82;49.62012;948.1214;;;;
2020/09/08 09:24:11;;;;;;;0.7;0.3;;;;;;;25.23;48.49805;948.1431;;;;
2020/09/08 09:26:36;;;;;;;0.3;0.2;;;;;;;25.79;45.74512;948.1136;;;;
2020/09/08 09:29:02;;;;;;;0.7;0.5;;;;;;;25.77;48.03516;948.1248;;;;
2020/09/08 09:31:27;;;;;;;0.4;0.3;;;;;;;25.85;46.99219;948.1354;;;;
2020/09/08 09:33:55;;;;;;;0.1;0.1;;;;;;;26.09;47.91602;948.0703;;;;
2020/09/08 09:36:20;;;;;;;0.4;0.4;;;;;;;26.54;45.99805;948.0942;;;;
2020/09/08 09:38:46;;;;;;;0.2;0.2;;;;;;;27.23;43.15137;948.0502;;;;
2020/09/08 09:41:18;;;;;;;0.2;0.2;;;;;;;27.87;41.93262;948.0439;;;;
2020/09/08 09:43:43;;;;;;;0.4;0.4;;;;;;;27.92;40.98535;948.1199;;;;
2020/09/08 09:46:08;;;;;;;3.7;0.5;;;;;;;26.84;43.25781;948.1006;;;;
2020/09/08 09:48:33;;;;;;;0.3;0.2;;;;;;;27.67;41.09277;948.1047;;;;
2020/09/08 09:50:58;;;;;;;0.4;0.4;;;;;;;27.83;42.4502;948.1316;;;;
2020/09/08 09:53:25;;;;;;;0.4;0.3;;;;;;;27.87;42.66797;948.0622;;;;
2020/09/08 09:55:50;;;;;;;0.3;0.3;;;;;;;27.88;41.89648;948.0778;;;;
2020/09/08 09:58:15;;;;;;;0.8;0.4;;;;;;;28.29;42.32715;948.1024;;;;
2020/09/08 10:00:41;;;;;;;0.4;0.3;;;;;;;27.9;42.71875;948.05;;;;
2020/09/08 10:03:08;;;;;;;0.4;0.4;;;;;;;28.06;42.29395;948.0223;;;;
2020/09/08 10:05:33;;;;;;;0.3;0.3;;;;;;;28.01;43.63086;948.0282;;;;
2020/09/08 10:08:00;;;;;;;1.5;0.3;;;;;;;28.43;42.31543;948.0528;;;;
2020/09/08 10:10:25;;;;;;;0.3;0.2;;;;;;;28.36;41.13281;948.0173;;;;
2020/09/08 10:12:50;;;;;;;0.5;0.3;;;;;;;27.76;43.13281;947.9468;;;;
2020/09/08 10:15:20;;;;;;;0.6;0.4;;;;;;;27.98;42.8916;947.9135;;;;
2020/09/08 10:17:45;;;;;;;0.4;0.3;;;;;;;28.45;40.09473;947.9332;;;;
2020/09/08 10:20:10;;;;;;;0.5;0.3;;;;;;;28.54;40.60254;947.9604;;;;
2020/09/08 10:22:36;;;;;;;0.4;0.2;;;;;;;28.96;40.69922;947.9642;;;;
2020/09/08 10:25:01;;;;;;;0.5;0.4;;;;;;;29.42;38.88184;947.8934;;;;
2020/09/08 10:27:26;;;;;;;0.3;0.2;;;;;;;29.42;38.8584;947.8901;;;;
2020/09/08 10:29:52;;;;;;;0.3;0.3;;;;;;;29.42;37.73828;947.7941;;;;
2020/09/08 10:32:17;;;;;;;0.1;0.1;;;;;;;29.3;38.75391;947.7751;;;;
2020/09/08 10:34:44;;;;;;;0.7;0.4;;;;;;;29.35;39.18652;947.8035;;;;
2020/09/08 10:37:09;;;;;;;0.3;0.3;;;;;;;29.59;37.84766;947.77;;;;
2020/09/08 10:39:36;;;;;;;0.7;0.3;;;;;;;29.64;38.9375;947.6699;;;;
2020/09/08 10:42:02;;;;;;;0.2;0.1;;;;;;;29.49;37.3623;947.6838;;;;
2020/09/08 10:44:28;;;;;;;0.2;0.2;;;;;;;29.24;38.41406;947.6829;;;;
2020/09/08 10:46:53;;;;;;;0.5;0.2;;;;;;;29.45;39.51563;947.6781;;;;
2020/09/08 10:49:18;;;;;;;1.9;0.4;;;;;;;29.85;38.08398;947.6373;;;;
2020/09/08 10:51:43;;;;;;;1;0.5;;;;;;;30.79;36.64551;947.6153;;;;
2020/09/08 10:54:08;;;;;;;0.6;0.4;;;;;;;31.3;35.39453;947.6208;;;;
2020/09/08 10:56:33;;;;;;;0.3;0.2;;;;;;;31.58;36.46973;947.5945;;;;
2020/09/08 10:58:58;;;;;;;0.7;0.3;;;;;;;31.33;36.09082;947.577;;;;
2020/09/08 11:01:26;;;;;;;1;0.3;;;;;;;31.24;35.9043;947.6022;;;;
2020/09/08 11:03:51;;;;;;;0.4;0.4;;;;;;;31.43;35.36914;947.6192;;;;
2020/09/08 11:06:16;;;;;;;0.7;0.4;;;;;;;31.13;36.54297;947.5595;;;;
2020/09/08 11:08:41;;;;;;;0.4;0.3;;;;;;;31.13;35.93164;947.6092;;;;
2020/09/08 11:11:09;;;;;;;0.1;0.1;;;;;;;30.7;35.61035;947.5388;;;;
2020/09/08 11:13:34;;;;;;;0.5;0.4;;;;;;;30.52;37.12598;947.5427;;;;
2020/09/08 11:15:59;;;;;;;0.3;0.3;;;;;;;30.2;38.4248;947.536;;;;
2020/09/08 11:18:24;;;;;;;0.3;0.3;;;;;;;29.99;38.69336;947.5784;;;;
2020/09/08 11:20:50;;;;;;;0.6;0.4;;;;;;;30.07;37.31543;947.5399;;;;
2020/09/08 11:23:16;;;;;;;0.2;0.2;;;;;;;30.11;37.61719;947.5082;;;;
2020/09/08 11:25:42;;;;;;;0.6;0.3;;;;;;;30.01;38.49219;947.5215;;;;
2020/09/08 11:28:07;;;;;;;0.4;0.3;;;;;;;29.86;38.01367;947.5435;;;;
2020/09/08 11:30:35;;;;;;;0.4;0.4;;;;;;;29.75;37.77832;947.4753;;;;
2020/09/08 11:33:00;;;;;;;1.1;0.6;;;;;;;29.02;39.66895;947.4568;;;;
2020/09/08 11:35:25;;;;;;;0.8;0.7;;;;;;;28.89;41.26465;947.4467;;;;
2020/09/08 11:37:50;;;;;;;0.4;0.4;;;;;;;28.35;43.31934;947.4163;;;;
2020/09/08 11:40:20;;;;;;;1;0.6;;;;;;;27.89;41.39844;947.4357;;;;
2020/09/08 11:42:47;;;;;;;1.6;0.8;;;;;;;27.25;44.51758;947.3748;;;;
2020/09/08 11:45:21;;;;;;;0.6;0.4;;;;;;;27.21;45.11816;947.3444;;;;
2020/09/08 11:47:46;;;;;;;1;0.6;;;;;;;27.07;46.53906;947.3476;;;;
2020/09/08 11:50:22;;;;;;;1.1;0.6;;;;;;;26.86;46.7666;947.3562;;;;
2020/09/08 11:52:47;;;;;;;0.4;0.4;;;;;;;26.76;47.15918;947.358;;;;
2020/09/08 11:55:13;;;;;;;0.7;0.5;;;;;;;26.56;46.66406;947.3539;;;;
2020/09/08 11:57:40;;;;;;;0.7;0.4;;;;;;;26.63;46.94434;947.2753;;;;
2020/09/08 12:00:05;;;;;;;0.3;0.3;;;;;;;26.35;47.10449;947.3599;;;;
2020/09/08 12:02:30;;;;;;;0.4;0.3;;;;;;;26.43;46.83984;947.3031;;;;
2020/09/08 12:04:56;;;;;;;0.9;0.5;;;;;;;26.51;47.74805;947.3558;;;;
2020/09/08 12:07:21;;;;;;;0.9;0.5;;;;;;;26.57;46.99707;947.3078;;;;
2020/09/08 12:09:48;;;;;;;0.8;0.4;;;;;;;26.44;46.34277;947.3357;;;;
2020/09/08 12:12:14;;;;;;;0.4;0.4;;;;;;;26.6;46.51367;947.2285;;;;
2020/09/08 12:14:39;;;;;;;0.4;0.3;;;;;;;26.63;46.62305;947.2419;;;;
2020/09/08 12:17:05;;;;;;;0.6;0.4;;;;;;;26.73;48.30469;947.2095;;;;
2020/09/08 12:19:30;;;;;;;0.6;0.4;;;;;;;26.81;46.41699;947.2252;;;;
2020/09/08 12:21:55;;;;;;;0.7;0.5;;;;;;;26.61;45.74512;947.2108;;;;
2020/09/08 12:24:23;;;;;;;0.3;0.3;;;;;;;26.78;44.83984;947.1765;;;;
2020/09/08 12:26:48;;;;;;;0.4;0.3;;;;;;;26.87;45.72461;947.1127;;;;
2020/09/08 12:29:16;;;;;;;0.3;0.3;;;;;;;27.08;46.21973;947.1035;;;;
2020/09/08 12:31:41;;;;;;;1.4;0.3;;;;;;;27.13;44.04395;947.0669;;;;
2020/09/08 12:34:06;;;;;;;1.2;0.5;;;;;;;26.96;44.27637;947.0611;;;;
2020/09/08 12:36:32;;;;;;;0.5;0.3;;;;;;;27.2;45.21289;947.06;;;;
2020/09/08 12:38:57;;;;;;;0.4;0.3;;;;;;;27.09;44.05273;947.0082;;;;
2020/09/08 12:41:24;;;;;;;1.3;0.7;;;;;;;26.89;44.89746;947.0154;;;;
2020/09/08 12:43:49;;;;;;;0.7;0.4;;;;;;;26.91;44.62695;946.9445;;;;
2020/09/08 12:46:14;;;;;;;0.7;0.4;;;;;;;26.75;46.13965;947.0002;;;;
2020/09/08 12:48:43;;;;;;;0.5;0.4;;;;;;;26.76;46.37695;947.0164;;;;
2020/09/08 12:51:08;;;;;;;1;0.6;;;;;;;26.9;46.94824;946.9612;;;;
2020/09/08 12:53:35;;;;;;;0.6;0.4;;;;;;;26.74;46.73047;946.964;;;;
2020/09/08 12:56:03;;;;;;;0.6;0.5;;;;;;;26.8;45.7168;946.9437;;;;
2020/09/08 12:58:33;;;;;;;1;0.4;;;;;;;26.52;47.64258;946.9127;;;;
2020/09/08 13:00:59;;;;;;;0.2;0.2;;;;;;;26.56;45.08887;946.8369;;;;
2020/09/08 13:03:26;;;;;;;0.3;0.3;;;;;;;26.53;47.47754;946.8378;;;;
2020/09/08 13:05:51;;;;;;;0.3;0.2;;;;;;;26.58;46.22754;946.873;;;;
2020/09/08 13:08:19;;;;;;;0.8;0.3;;;;;;;26.31;46.08203;946.8818;;;;
2020/09/08 13:10:44;;;;;;;0.6;0.5;;;;;;;26.25;46.35938;946.8867;;;;
2020/09/08 13:13:09;;;;;;;2.5;0.4;;;;;;;26.44;45.65625;946.8759;;;;
2020/09/08 13:15:35;;;;;;;0.4;0.2;;;;;;;26.2;46.92285;946.8897;;;;
2020/09/08 13:18:00;;;;;;;0.4;0.2;;;;;;;26.4;47.62988;946.8378;;;;
2020/09/08 13:20:25;;;;;;;1.2;0.8;;;;;;;26.49;47.8877;946.82;;;;
2020/09/08 13:22:51;;;;;;;0.5;0.4;;;;;;;26.46;46.06055;946.8628;;;;
2020/09/08 13:25:21;;;;;;;0.4;0.3;;;;;;;26.4;47.0498;946.9131;;;;
2020/09/08 13:27:50;;;;;;;0.2;0.2;;;;;;;26.05;47.6875;946.7963;;;;
2020/09/08 13:30:15;;;;;;;0.5;0.4;;;;;;;26.08;47.58301;946.8215;;;;
2020/09/08 13:32:41;;;;;;;0.6;0.4;;;;;;;26.2;48.15332;946.7932;;;;
2020/09/08 13:35:06;;;;;;;1.3;0.4;;;;;;;26.05;48.29004;946.7916;;;;
2020/09/08 13:37:31;;;;;;;0.4;0.4;;;;;;;26.06;48.00684;946.7961;;;;
2020/09/08 13:39:56;;;;;;;0.3;0.3;;;;;;;26.06;48.41016;946.743;;;;
2020/09/08 13:42:21;;;;;;;0.8;0.5;;;;;;;26.13;48.99707;946.7919;;;;
2020/09/08 13:44:46;;;;;;;0.5;0.3;;;;;;;26.02;49.64746;946.6951;;;;
2020/09/08 13:47:11;;;;;;;0.3;0.3;;;;;;;26.12;49.30371;946.731;;;;
2020/09/08 13:49:38;;;;;;;0.5;0.5;;;;;;;26.22;48.95996;946.6937;;;;
2020/09/08 13:52:03;;;;;;;0.3;0.3;;;;;;;26.07;49.51172;946.7083;;;;
2020/09/08 13:54:31;;;;;;;1.6;0.7;;;;;;;25.97;49.29785;946.7372;;;;
2020/09/08 13:56:56;;;;;;;0.9;0.4;;;;;;;25.88;50.34082;946.7266;;;;
2020/09/08 13:59:21;;;;;;;0.6;0.4;;;;;;;25.96;50.01855;946.7914;;;;
2020/09/08 14:01:48;;;;;;;1;0.7;;;;;;;25.84;50.83301;946.7794;;;;
2020/09/08 14:04:13;;;;;;;0.9;0.6;;;;;;;25.74;50.39648;946.7592;;;;
2020/09/08 14:06:38;;;;;;;0.7;0.5;;;;;;;25.63;50.18457;946.7576;;;;
2020/09/08 14:09:03;;;;;;;0.3;0.3;;;;;;;25.76;50.7998;946.733;;;;
2020/09/08 14:11:28;;;;;;;0.4;0.3;;;;;;;25.75;50.58594;946.7734;;;;
2020/09/08 14:13:53;;;;;;;0.6;0.4;;;;;;;25.68;51.12207;946.6961;;;;
2020/09/08 14:16:20;;;;;;;0.3;0.3;;;;;;;25.68;51.31152;946.7335;;;;
2020/09/08 14:18:45;;;;;;;1;0.7;;;;;;;25.54;51.96875;946.6685;;;;
2020/09/08 14:21:13;;;;;;;0.7;0.3;;;;;;;25.53;51.42383;946.6256;;;;
2020/09/08 14:23:39;;;;;;;2.5;0.6;;;;;;;25.32;53.86719;946.6978;;;;
2020/09/08 14:26:12;;;;;;;0.4;0.4;;;;;;;25.29;52.1875;946.6769;;;;
2020/09/08 14:28:34;;;;;;;0.4;0.4;;;;;;;25.17;52.26855;946.6945;;;;
2020/09/08 14:31:03;;;;;;;0.5;0.5;;;;;;;25.26;52.20703;946.7188;;;;
2020/09/08 14:33:27;;;;;;;0.6;0.4;;;;;;;25.19;52.4707;946.6481;;;;
2020/09/08 14:35:52;;;;;;;1.5;0.5;;;;;;;25.13;53.81055;946.7047;;;;
2020/09/08 14:38:17;;;;;;;1.4;0.5;;;;;;;25.06;53.05762;946.707;;;;
2020/09/08 14:40:45;;;;;;;0.6;0.4;;;;;;;24.72;53.53613;946.757;;;;
2020/09/08 14:43:10;;;;;;;0.9;0.5;;;;;;;24.73;53.70215;946.753;;;;
2020/09/08 14:45:40;;;;;;;0.4;0.4;;;;;;;24.61;54.47754;946.7065;;;;
2020/09/08 14:48:04;;;;;;;0.4;0.3;;;;;;;24.52;53.65332;946.6906;;;;
2020/09/08 14:50:30;;;;;;;0.4;0.4;;;;;;;24.53;55.41113;946.714;;;;
2020/09/08 14:52:55;;;;;;;1.5;0.4;;;;;;;24.37;54.68457;946.6958;;;;
2020/09/08 14:55:20;;;;;;;1.3;0.4;;;;;;;24.45;54.55273;946.7076;;;;
2020/09/08 14:57:46;;;;;;;2.1;0.8;;;;;;;24.27;54.61426;946.613;;;;
2020/09/08 15:00:18;;;;;;;1;0.5;;;;;;;24.32;55.60938;946.6811;;;;
2020/09/08 15:02:43;;;;;;;0.5;0.4;;;;;;;24.13;54.4668;946.6535;;;;
2020/09/08 15:05:29;;;;;;;0.5;0.4;;;;;;;24.04;55.2207;946.6774;;;;
2020/09/08 15:07:49;;;;;;;0.5;0.5;;;;;;;23.82;55.4873;946.6972;;;;
2020/09/08 15:10:15;;;;;;;0.6;0.6;;;;;;;23.6;56.21289;946.7397;;;;
2020/09/08 15:12:45;;;;;;;2.2;0.6;;;;;;;23.64;56.66504;946.7355;;;;
2020/09/08 15:15:24;;;;;;;0.8;0.6;;;;;;;23.45;56.57129;946.7513;;;;
2020/09/08 15:17:42;;;;;;;0.4;0.3;;;;;;;23.52;56.55566;946.7739;;;;
2020/09/08 15:20:14;;;;;;;0.8;0.7;;;;;;;23.48;56.67969;946.8019;;;;
2020/09/08 15:22:39;;;;;;;1.8;0.6;;;;;;;23.47;56.89063;946.8256;;;;
2020/09/08 15:25:04;;;;;;;0.3;0.3;;;;;;;23.57;57.2207;946.7346;;;;
2020/09/08 15:27:30;;;;;;;1.6;0.8;;;;;;;23.63;56.60449;946.7748;;;;
2020/09/08 15:29:55;;;;;;;0.3;0.3;;;;;;;23.35;56.92188;946.7603;;;;
2020/09/08 15:32:22;;;;;;;0.5;0.5;;;;;;;23.28;56.85352;946.7711;;;;